Time;durP1;ratioP1;P1;durP2;ratioP2;P2;SDS_P1;SDS_P2;PMS_P1;PMS_P2;Temp;Humidity;BMP_temperature;BMP_pressure;BME280_temperature;BME280_humidity;BME280_pressure;Samples;Min_cycle;Max_cycle;Signal;HPM_P1;HPM_P2
2021/01/04 00:00:32;;;;;;;11.4;5.7;;;;;;;;;;;;;
2021/01/04 00:02:57;;;;;;;7.8;4.1;;;;;;;;;;;;;
2021/01/04 00:05:23;;;;;;;12.8;5.2;;;;;;;;;;;;;
2021/01/04 00:07:48;;;;;;;6.9;4.2;;;;;;;;;;;;;
2021/01/04 00:10:14;;;;;;;8;4.8;;;;;;;;;;;;;
2021/01/04 00:12:39;;;;;;;7.6;3.8;;;;;;;;;;;;;
2021/01/04 00:15:04;;;;;;;11.4;4;;;;;;;;;;;;;
2021/01/04 00:17:29;;;;;;;9.4;4.7;;;;;;;;;;;;;
2021/01/04 00:19:54;;;;;;;9;4;;;;;;;;;;;;;
2021/01/04 00:22:20;;;;;;;9;5.2;;;;;;;;;;;;;
2021/01/04 00:24:45;;;;;;;12.8;4.8;;;;;;;;;;;;;
2021/01/04 00:27:10;;;;;;;7.4;4.5;;;;;;;;;;;;;
2021/01/04 00:29:37;;;;;;;8.8;4.8;;;;;;;;;;;;;
2021/01/04 00:32:02;;;;;;;8.4;4.7;;;;;;;;;;;;;
2021/01/04 00:34:27;;;;;;;12.2;4.1;;;;;;;;;;;;;
2021/01/04 00:36:54;;;;;;;7.5;3.7;;;;;;;;;;;;;
2021/01/04 00:39:31;;;;;;;8.6;4.3;;;;;;;;;;;;;
2021/01/04 00:41:56;;;;;;;5.9;3.9;;;;;;;;;;;;;
2021/01/04 00:44:21;;;;;;;10.8;5.1;;;;;;;;;;;;;
2021/01/04 00:46:46;;;;;;;6.9;4.7;;;;;;;;;;;;;
2021/01/04 00:49:11;;;;;;;8.1;4.4;;;;;;;;;;;;;
2021/01/04 00:51:37;;;;;;;9.6;5.1;;;;;;;;;;;;;
2021/01/04 00:54:02;;;;;;;6.4;3.3;;;;;;;;;;;;;
2021/01/04 00:56:29;;;;;;;9.3;4.7;;;;;;;;;;;;;
2021/01/04 00:58:53;;;;;;;8.8;4.4;;;;;;;;;;;;;
2021/01/04 01:01:18;;;;;;;8.7;4.6;;;;;;;;;;;;;
2021/01/04 01:03:49;;;;;;;8.5;5;;;;;;;;;;;;;
2021/01/04 01:06:14;;;;;;;7.9;4.7;;;;;;;;;;;;;
2021/01/04 01:08:39;;;;;;;7.9;4.1;;;;;;;;;;;;;
2021/01/04 01:11:10;;;;;;;10.2;4.5;;;;;;;;;;;;;
2021/01/04 01:13:37;;;;;;;7.9;4.4;;;;;;;;;;;;;
2021/01/04 01:16:02;;;;;;;11.1;5;;;;;;;;;;;;;
2021/01/04 01:18:28;;;;;;;7.2;3.7;;;;;;;;;;;;;
2021/01/04 01:20:52;;;;;;;10.6;4.7;;;;;;;;;;;;;
2021/01/04 01:23:18;;;;;;;6.9;4.9;;;;;;;;;;;;;
2021/01/04 01:25:44;;;;;;;13.6;4.8;;;;;;;;;;;;;
2021/01/04 01:28:10;;;;;;;11.2;4.7;;;;;;;;;;;;;
2021/01/04 01:30:35;;;;;;;13.1;4.9;;;;;;;;;;;;;
2021/01/04 01:33:01;;;;;;;6.2;4.1;;;;;;;;;;;;;
2021/01/04 01:35:26;;;;;;;5.3;3.9;;;;;;;;;;;;;
2021/01/04 01:37:54;;;;;;;7.7;4.2;;;;;;;;;;;;;
2021/01/04 01:40:22;;;;;;;6.3;4.4;;;;;;;;;;;;;
2021/01/04 01:42:47;;;;;;;9.6;4.7;;;;;;;;;;;;;
2021/01/04 01:45:12;;;;;;;7.9;4.2;;;;;;;;;;;;;
2021/01/04 01:47:37;;;;;;;7.4;3.9;;;;;;;;;;;;;
2021/01/04 01:50:02;;;;;;;7.2;4.2;;;;;;;;;;;;;
2021/01/04 01:52:27;;;;;;;8.3;4.7;;;;;;;;;;;;;
2021/01/04 01:54:52;;;;;;;5.9;3.9;;;;;;;;;;;;;
2021/01/04 01:57:17;;;;;;;5.6;3.6;;;;;;;;;;;;;
2021/01/04 01:59:43;;;;;;;11.1;5.2;;;;;;;;;;;;;
2021/01/04 02:02:08;;;;;;;9.9;5.6;;;;;;;;;;;;;
2021/01/04 02:04:33;;;;;;;7;4.5;;;;;;;;;;;;;
2021/01/04 02:07:05;;;;;;;8.3;4;;;;;;;;;;;;;
2021/01/04 02:09:32;;;;;;;7.6;3.2;;;;;;;;;;;;;
2021/01/04 02:11:58;;;;;;;9.1;3.8;;;;;;;;;;;;;
2021/01/04 02:14:23;;;;;;;11.2;4.6;;;;;;;;;;;;;
2021/01/04 02:16:50;;;;;;;9.9;4.7;;;;;;;;;;;;;
2021/01/04 02:19:22;;;;;;;10.3;4.4;;;;;;;;;;;;;
2021/01/04 02:21:51;;;;;;;5.6;3.9;;;;;;;;;;;;;
2021/01/04 02:24:16;;;;;;;8;4.7;;;;;;;;;;;;;
2021/01/04 02:26:41;;;;;;;6.3;3.7;;;;;;;;;;;;;
2021/01/04 02:29:14;;;;;;;5.8;3;;;;;;;;;;;;;
2021/01/04 02:31:46;;;;;;;6.8;4.1;;;;;;;;;;;;;
2021/01/04 02:34:17;;;;;;;7.1;4.3;;;;;;;;;;;;;
2021/01/04 02:36:42;;;;;;;6.1;3.1;;;;;;;;;;;;;
2021/01/04 02:39:18;;;;;;;6;3.4;;;;;;;;;;;;;
2021/01/04 02:41:49;;;;;;;9.1;3.5;;;;;;;;;;;;;
2021/01/04 02:44:14;;;;;;;4.9;3.4;;;;;;;;;;;;;
2021/01/04 02:46:40;;;;;;;6.3;3;;;;;;;;;;;;;
2021/01/04 02:49:05;;;;;;;7.1;3.5;;;;;;;;;;;;;
2021/01/04 02:51:30;;;;;;;4.7;3.4;;;;;;;;;;;;;
2021/01/04 02:53:55;;;;;;;7.9;3.9;;;;;;;;;;;;;
2021/01/04 02:56:21;;;;;;;6.2;3.2;;;;;;;;;;;;;
2021/01/04 02:58:46;;;;;;;9.4;4.5;;;;;;;;;;;;;
2021/01/04 03:01:12;;;;;;;7.4;3.9;;;;;;;;;;;;;
2021/01/04 03:03:38;;;;;;;8.4;4.1;;;;;;;;;;;;;
2021/01/04 03:06:04;;;;;;;13.5;4.5;;;;;;;;;;;;;
2021/01/04 03:08:29;;;;;;;8.4;5.2;;;;;;;;;;;;;
2021/01/04 03:10:57;;;;;;;9.6;4.8;;;;;;;;;;;;;
2021/01/04 03:13:22;;;;;;;7.6;3.9;;;;;;;;;;;;;
2021/01/04 03:15:47;;;;;;;8.8;3.8;;;;;;;;;;;;;
2021/01/04 03:18:13;;;;;;;8.3;4.1;;;;;;;;;;;;;
2021/01/04 03:20:39;;;;;;;9.6;3.6;;;;;;;;;;;;;
2021/01/04 03:23:14;;;;;;;8;4.3;;;;;;;;;;;;;
2021/01/04 03:25:46;;;;;;;6.6;4.4;;;;;;;;;;;;;
2021/01/04 03:28:11;;;;;;;6.2;3.2;;;;;;;;;;;;;
2021/01/04 03:30:37;;;;;;;6;4.2;;;;;;;;;;;;;
2021/01/04 03:33:05;;;;;;;6.1;3.8;;;;;;;;;;;;;
2021/01/04 03:35:30;;;;;;;7.5;3.8;;;;;;;;;;;;;
2021/01/04 03:37:58;;;;;;;8;4.2;;;;;;;;;;;;;
2021/01/04 03:40:23;;;;;;;4.8;3.5;;;;;;;;;;;;;
2021/01/04 03:42:48;;;;;;;8.7;4.2;;;;;;;;;;;;;
2021/01/04 03:45:14;;;;;;;6.9;4.1;;;;;;;;;;;;;
2021/01/04 03:47:44;;;;;;;13.1;4.6;;;;;;;;;;;;;
2021/01/04 03:50:09;;;;;;;7;3.9;;;;;;;;;;;;;
2021/01/04 03:52:34;;;;;;;6.5;2.9;;;;;;;;;;;;;
2021/01/04 03:54:59;;;;;;;5.7;3.6;;;;;;;;;;;;;
2021/01/04 03:57:24;;;;;;;9.9;3.3;;;;;;;;;;;;;
2021/01/04 03:59:49;;;;;;;6;4.1;;;;;;;;;;;;;
2021/01/04 04:02:42;;;;;;;6;4.1;;;;;;;1.38;73.7041;930.9629;;;;
2021/01/04 04:05:10;;;;;;;7.8;4.5;;;;;;;1.28;73.29785;930.956;;;;
2021/01/04 04:07:35;;;;;;;8.4;4.3;;;;;;;1.13;73.62891;930.9713;;;;
2021/01/04 04:10:07;;;;;;;7.7;3.1;;;;;;;1.12;73.72559;930.9371;;;;
2021/01/04 04:12:40;;;;;;;5.2;3.5;;;;;;;1.26;73.68359;931.0179;;;;
2021/01/04 04:15:14;;;;;;;5.1;3.3;;;;;;;1.33;72.64648;931.0139;;;;
2021/01/04 04:17:45;;;;;;;6;3.4;;;;;;;1.25;72.81055;930.9817;;;;
2021/01/04 04:20:26;;;;;;;5.6;3.6;;;;;;;1.21;73.51855;931.0031;;;;
2021/01/04 04:23:02;;;;;;;4.9;3.4;;;;;;;1.02;74.5459;931.0648;;;;
2021/01/04 04:25:34;;;;;;;5.8;2.9;;;;;;;1.09;74.46973;931.0397;;;;
2021/01/04 04:28:07;;;;;;;5.1;3;;;;;;;1.1;73.78027;931.0369;;;;
2021/01/04 04:30:43;;;;;;;7.1;3.4;;;;;;;1.18;73.16895;931.0427;;;;
2021/01/04 04:33:08;;;;;;;6.3;4;;;;;;;1.3;73.09766;931.0444;;;;
2021/01/04 04:35:34;;;;;;;4.2;3;;;;;;;1.32;72.37598;931.049;;;;
2021/01/04 04:38:01;;;;;;;6.8;2.7;;;;;;;1.37;72.2832;930.9681;;;;
2021/01/04 04:40:42;;;;;;;7.4;3.1;;;;;;;1.4;72.01074;931.0848;;;;
2021/01/04 04:43:13;;;;;;;8.1;3.5;;;;;;;1.49;71.52246;931.074;;;;
2021/01/04 04:45:45;;;;;;;11.2;5.3;;;;;;;1.41;71.94434;930.9447;;;;
2021/01/04 04:48:15;;;;;;;7.5;3.3;;;;;;;1.38;72.63184;930.9456;;;;
2021/01/04 04:50:43;;;;;;;5.2;2.9;;;;;;;1.02;71.41016;931.0641;;;;
2021/01/04 04:53:17;;;;;;;6.2;3.6;;;;;;;0.84;72.78516;931.1253;;;;
2021/01/04 04:55:48;;;;;;;5.6;2.4;;;;;;;0.65;73.08594;931.0909;;;;
2021/01/04 04:58:16;;;;;;;7;3.3;;;;;;;0.65;74.74805;931.055;;;;
2021/01/04 05:00:50;;;;;;;4.3;3;;;;;;;0.6;74.7959;931.1356;;;;
2021/01/04 05:03:23;;;;;;;5.6;3.8;;;;;;;0.53;74.01367;931.1515;;;;
2021/01/04 05:05:48;;;;;;;7.2;3.4;;;;;;;0.56;73.5625;931.0697;;;;
2021/01/04 05:08:20;;;;;;;5;2.7;;;;;;;0.67;73.3252;931.0869;;;;
2021/01/04 05:10:46;;;;;;;4.2;2.2;;;;;;;0.64;73.02832;931.0999;;;;
2021/01/04 05:13:24;;;;;;;4.9;2.9;;;;;;;0.57;73.17383;931.0895;;;;
2021/01/04 05:15:56;;;;;;;6.5;3.3;;;;;;;0.45;74.2334;931.1417;;;;
2021/01/04 05:18:28;;;;;;;3.6;2.7;;;;;;;0.43;73.93066;931.0958;;;;
2021/01/04 05:20:53;;;;;;;5.6;3.2;;;;;;;0.27;74.89355;931.0441;;;;
2021/01/04 05:23:31;;;;;;;6.5;2.4;;;;;;;0.53;74.5957;930.9559;;;;
2021/01/04 05:25:58;;;;;;;3.5;2.5;;;;;;;0.48;73.23633;931.0324;;;;
2021/01/04 05:28:23;;;;;;;3;2.4;;;;;;;0.64;73.20898;931.0767;;;;
2021/01/04 05:30:49;;;;;;;5.4;2.9;;;;;;;0.69;72.96973;931.0569;;;;
2021/01/04 05:33:14;;;;;;;5.3;3.3;;;;;;;0.66;73.71289;931.0982;;;;
2021/01/04 05:35:39;;;;;;;5.8;3.1;;;;;;;0.8;73.21289;931.1476;;;;
2021/01/04 05:38:10;;;;;;;6.2;3.4;;;;;;;0.71;72.62695;931.1234;;;;
2021/01/04 05:40:38;;;;;;;3.7;2.5;;;;;;;0.59;72.70898;931.1624;;;;
2021/01/04 05:43:14;;;;;;;6.5;2.9;;;;;;;0.38;73.53125;931.103;;;;
2021/01/04 05:45:49;;;;;;;4.3;3.2;;;;;;;0.56;73.49609;931.123;;;;
2021/01/04 05:48:21;;;;;;;5.7;3.2;;;;;;;0.62;73.53906;931.0632;;;;
2021/01/04 05:50:46;;;;;;;4.9;3.2;;;;;;;0.69;72.92676;931.1002;;;;
2021/01/04 05:53:11;;;;;;;3.7;2.8;;;;;;;0.77;72.79395;931.0714;;;;
2021/01/04 05:55:38;;;;;;;4.5;2.9;;;;;;;0.76;72.61523;931.0956;;;;
2021/01/04 05:58:03;;;;;;;6.5;3.2;;;;;;;0.88;72.60254;931.1758;;;;
2021/01/04 06:00:28;;;;;;;6.9;3.9;;;;;;;0.87;72.40918;931.1503;;;;
2021/01/04 06:02:55;;;;;;;6.6;3.7;;;;;;;0.95;72.2793;931.15;;;;
2021/01/04 06:05:25;;;;;;;4.7;3.2;;;;;;;0.85;72.75391;931.1536;;;;
2021/01/04 06:07:50;;;;;;;6;2.5;;;;;;;0.94;72.80078;931.1252;;;;
2021/01/04 06:10:23;;;;;;;5.3;2.9;;;;;;;0.85;72.04883;931.134;;;;
2021/01/04 06:12:48;;;;;;;4.5;2.9;;;;;;;0.89;72.41406;931.1353;;;;
2021/01/04 06:15:17;;;;;;;6.2;3.6;;;;;;;0.75;73.26074;931.0991;;;;
2021/01/04 06:17:43;;;;;;;8.2;4.2;;;;;;;0.51;73.61914;931.0809;;;;
2021/01/04 06:20:17;;;;;;;4.4;3.2;;;;;;;0.53;74.68164;931.0457;;;;
2021/01/04 06:22:42;;;;;;;6.6;3.3;;;;;;;0.48;73.66016;931.0707;;;;
2021/01/04 06:25:07;;;;;;;6.2;3.1;;;;;;;0.57;73.78711;931.0927;;;;
2021/01/04 06:27:33;;;;;;;6.2;3.5;;;;;;;0.36;73.56055;931.0511;;;;
2021/01/04 06:29:58;;;;;;;4.4;3.1;;;;;;;0.11;73.85156;931.032;;;;
2021/01/04 06:32:24;;;;;;;4.9;3;;;;;;;0.2;74.11328;931.0332;;;;
2021/01/04 06:34:49;;;;;;;3.8;2.7;;;;;;;0.23;73.37109;931.0584;;;;
2021/01/04 06:37:15;;;;;;;4;2.7;;;;;;;0.31;73.22852;931.0144;;;;
2021/01/04 06:39:41;;;;;;;6.5;2.5;;;;;;;0.07;73.54297;931.0446;;;;
2021/01/04 06:42:05;;;;;;;5.5;3.9;;;;;;;0.21;74.13672;930.9974;;;;
2021/01/04 06:44:31;;;;;;;3.7;2.8;;;;;;;0.31;72.9834;930.9847;;;;
2021/01/04 06:46:57;;;;;;;4.7;3.3;;;;;;;0.36;73.24805;931.0433;;;;
2021/01/04 06:49:21;;;;;;;5.9;2.5;;;;;;;0.29;73.03613;931.0553;;;;
2021/01/04 06:51:47;;;;;;;2.9;2.2;;;;;;;0.16;72.98145;931.0048;;;;
2021/01/04 06:54:12;;;;;;;4.1;2.9;;;;;;;0.15;73.54785;931.0586;;;;
2021/01/04 06:56:37;;;;;;;6;3.6;;;;;;;0.22;73.9375;931.0591;;;;
2021/01/04 06:59:09;;;;;;;7.3;3.3;;;;;;;0.21;73.76855;931.0681;;;;
2021/01/04 07:01:34;;;;;;;3.6;2.6;;;;;;;0.2;72.88672;931.0927;;;;
2021/01/04 07:03:59;;;;;;;7.2;3.3;;;;;;;0.22;73.02246;931.1669;;;;
2021/01/04 07:06:24;;;;;;;2.5;2.1;;;;;;;0.3;73.31543;931.1494;;;;
2021/01/04 07:09:00;;;;;;;5.3;2.5;;;;;;;0.02;73.43359;931.1513;;;;
2021/01/04 07:11:25;;;;;;;5;2.2;;;;;;;-0.12;73.38965;931.1484;;;;
2021/01/04 07:13:50;;;;;;;4.6;2.9;;;;;;;-0.06;74.29883;931.0919;;;;
2021/01/04 07:16:15;;;;;;;5;3;;;;;;;-0.24;74.82617;931.1656;;;;
2021/01/04 07:18:40;;;;;;;7.1;3.7;;;;;;;-0.85;76.46191;931.1113;;;;
2021/01/04 07:21:10;;;;;;;4.5;2.7;;;;;;;-0.93;77.06055;931.1736;;;;
2021/01/04 07:23:35;;;;;;;3.8;2.3;;;;;;;-0.76;77.3916;931.2489;;;;
2021/01/04 07:26:00;;;;;;;3.6;2.2;;;;;;;-0.67;76.91797;931.2523;;;;
2021/01/04 07:28:27;;;;;;;5.1;3.3;;;;;;;-0.76;76.20215;931.2684;;;;
2021/01/04 07:30:58;;;;;;;3.5;2.2;;;;;;;-0.96;77.67578;931.2443;;;;
2021/01/04 07:33:24;;;;;;;3.4;2.5;;;;;;;-1.02;77.14258;931.2659;;;;
2021/01/04 07:35:57;;;;;;;6.4;2.9;;;;;;;-0.95;77.06641;931.2509;;;;
2021/01/04 07:38:22;;;;;;;5.7;3.5;;;;;;;-0.92;77.35059;931.3455;;;;
2021/01/04 07:41:01;;;;;;;4.1;2.6;;;;;;;-0.8;77.43945;931.239;;;;
2021/01/04 07:43:26;;;;;;;4.2;2.4;;;;;;;-0.71;76.67773;931.3063;;;;
2021/01/04 07:45:51;;;;;;;3.5;2.4;;;;;;;-0.45;75.86816;931.3348;;;;
2021/01/04 07:48:23;;;;;;;4.8;3.2;;;;;;;-0.28;74.76172;931.372;;;;
2021/01/04 07:50:47;;;;;;;4.6;2.8;;;;;;;-0.21;73.7168;931.3809;;;;
2021/01/04 07:53:13;;;;;;;3.7;2.8;;;;;;;-0.07;73.35254;931.3585;;;;
2021/01/04 07:55:39;;;;;;;6.2;2.8;;;;;;;-0.17;73.1123;931.2051;;;;
2021/01/04 07:58:04;;;;;;;4.8;2.5;;;;;;;-0.39;74.24219;931.306;;;;
2021/01/04 08:00:29;;;;;;;3.8;2.8;;;;;;;-0.53;74.40527;931.3033;;;;
2021/01/04 08:02:54;;;;;;;3.3;2.5;;;;;;;-0.55;74.35938;931.3013;;;;
2021/01/04 08:05:19;;;;;;;7.1;2.4;;;;;;;-0.62;75.24609;931.3253;;;;
2021/01/04 08:07:44;;;;;;;3.8;2.7;;;;;;;-0.66;74.99512;931.345;;;;
2021/01/04 08:10:13;;;;;;;4.1;3;;;;;;;-0.7;75.60059;931.317;;;;
2021/01/04 08:12:41;;;;;;;3.2;2.2;;;;;;;-0.45;75.14453;931.3176;;;;
2021/01/04 08:15:06;;;;;;;6;2.7;;;;;;;-0.46;74.60938;931.2531;;;;
2021/01/04 08:17:32;;;;;;;3;2.1;;;;;;;-0.3;73.36914;931.2798;;;;
2021/01/04 08:19:57;;;;;;;3.2;2.3;;;;;;;-0.37;73.66797;931.3383;;;;
2021/01/04 08:22:22;;;;;;;7;2;;;;;;;-0.46;74.08496;931.2842;;;;
2021/01/04 08:24:47;;;;;;;6.7;2.5;;;;;;;-0.19;74.44434;931.3467;;;;
2021/01/04 08:27:15;;;;;;;3.4;2;;;;;;;-0.02;71.8125;931.3845;;;;
2021/01/04 08:29:40;;;;;;;5.6;2.6;;;;;;;0.45;71.41406;931.3705;;;;
2021/01/04 08:32:05;;;;;;;4.3;2.6;;;;;;;0.62;70.03711;931.3586;;;;
2021/01/04 08:34:33;;;;;;;4.6;2.7;;;;;;;0.52;69.93066;931.31;;;;
2021/01/04 08:36:58;;;;;;;4.6;2.2;;;;;;;0.2;70.25488;931.3215;;;;
2021/01/04 08:39:23;;;;;;;2.8;2.2;;;;;;;0.25;70.34277;931.3683;;;;
2021/01/04 08:41:49;;;;;;;6.3;2.9;;;;;;;0.42;69.01074;931.4155;;;;
2021/01/04 08:44:17;;;;;;;4.1;2.6;;;;;;;0.38;70.21875;931.4136;;;;
2021/01/04 08:46:42;;;;;;;4;2.8;;;;;;;0.46;69.25195;931.3747;;;;
2021/01/04 08:49:07;;;;;;;3.8;2.6;;;;;;;0.59;70.17676;931.3706;;;;
2021/01/04 08:51:32;;;;;;;5.7;2.6;;;;;;;0.64;69.38184;931.3837;;;;
2021/01/04 08:53:57;;;;;;;5.2;2.9;;;;;;;0.81;68.49316;931.4807;;;;
2021/01/04 08:56:22;;;;;;;4;2.9;;;;;;;1.22;67.58887;931.5123;;;;
2021/01/04 08:58:51;;;;;;;6;3;;;;;;;1.66;64.99805;931.5153;;;;
2021/01/04 09:01:16;;;;;;;6.6;3.5;;;;;;;1.91;63.91504;931.4587;;;;
2021/01/04 09:03:44;;;;;;;4.3;3.2;;;;;;;1.99;63.71582;931.4595;;;;
2021/01/04 09:06:11;;;;;;;8;3.8;;;;;;;1.76;63.91699;931.4839;;;;
2021/01/04 09:08:37;;;;;;;5.4;2.2;;;;;;;1.67;64.41602;931.5508;;;;
2021/01/04 09:11:04;;;;;;;4.5;2.9;;;;;;;1.88;63.92383;931.4149;;;;
2021/01/04 09:13:31;;;;;;;3.8;2.3;;;;;;;1.6;64.2041;931.531;;;;
2021/01/04 09:15:56;;;;;;;5.6;2.5;;;;;;;1.14;65.91211;931.5407;;;;
2021/01/04 09:18:21;;;;;;;6.8;2.9;;;;;;;0.81;66.73047;931.4673;;;;
2021/01/04 09:20:47;;;;;;;6.6;3.1;;;;;;;0.73;68.19141;931.4119;;;;
2021/01/04 09:23:13;;;;;;;3.2;2.4;;;;;;;0.84;67.67383;931.4285;;;;
2021/01/04 09:25:37;;;;;;;9.1;3.6;;;;;;;0.74;68.68262;931.3845;;;;
2021/01/04 09:28:03;;;;;;;5;2.7;;;;;;;1.01;67.84473;931.3741;;;;
2021/01/04 09:30:29;;;;;;;6.7;3.3;;;;;;;0.95;68.62891;931.3318;;;;
2021/01/04 09:32:53;;;;;;;7.1;3.5;;;;;;;1.17;67.81445;931.3683;;;;
2021/01/04 09:35:20;;;;;;;3;2.1;;;;;;;1.36;66.4707;931.302;;;;
2021/01/04 09:37:46;;;;;;;6.8;3.5;;;;;;;1.59;65.79102;931.3039;;;;
2021/01/04 09:40:11;;;;;;;7.5;3.5;;;;;;;1.85;65.22754;931.1674;;;;
2021/01/04 09:42:36;;;;;;;4.9;2.9;;;;;;;1.96;64.9541;931.2305;;;;
2021/01/04 09:45:02;;;;;;;5;2.7;;;;;;;2.05;64.25195;931.2011;;;;
2021/01/04 09:47:27;;;;;;;6.6;3.9;;;;;;;2.42;62.87207;931.1934;;;;
2021/01/04 09:49:52;;;;;;;7.7;3.4;;;;;;;2.6;61.77832;931.1882;;;;
2021/01/04 09:52:17;;;;;;;9.8;4;;;;;;;2.84;61.44336;931.1426;;;;
2021/01/04 09:54:45;;;;;;;5.2;3;;;;;;;3.13;59.6123;931.0333;;;;
2021/01/04 09:57:10;;;;;;;7.1;3.4;;;;;;;2.95;59.97754;931.0848;;;;
2021/01/04 09:59:35;;;;;;;8.5;3.2;;;;;;;3.39;60.27734;931.0304;;;;
2021/01/04 10:02:01;;;;;;;5.8;3;;;;;;;3.66;58.69727;931.0289;;;;
2021/01/04 10:04:27;;;;;;;6.8;3.7;;;;;;;3.78;58.27539;931.0158;;;;
2021/01/04 10:06:52;;;;;;;5.6;3;;;;;;;4.07;58.90918;930.9644;;;;
2021/01/04 10:09:18;;;;;;;5.7;3.2;;;;;;;4.37;57.71387;930.968;;;;
2021/01/04 10:11:42;;;;;;;5.5;3.2;;;;;;;4.68;57.1377;930.9078;;;;
2021/01/04 10:14:07;;;;;;;6.9;2.9;;;;;;;4.77;56.54102;930.8605;;;;
2021/01/04 10:16:32;;;;;;;8.1;3.2;;;;;;;4.74;56.99805;930.856;;;;
2021/01/04 10:18:57;;;;;;;6.6;3.3;;;;;;;4.78;56.43945;930.8126;;;;
2021/01/04 10:21:22;;;;;;;5.4;3.3;;;;;;;4.35;56.99121;930.7532;;;;
2021/01/04 10:23:48;;;;;;;6.3;3.7;;;;;;;4.16;57.97852;930.8095;;;;
2021/01/04 10:26:13;;;;;;;11.8;4.8;;;;;;;3.66;59.65137;930.7974;;;;
2021/01/04 10:28:38;;;;;;;5.3;3.1;;;;;;;3.42;60.69727;930.8434;;;;
2021/01/04 10:31:06;;;;;;;11;4.4;;;;;;;3.53;60.54297;930.7656;;;;
2021/01/04 10:33:32;;;;;;;6.6;3.4;;;;;;;3.69;59.80273;930.7886;;;;
2021/01/04 10:35:56;;;;;;;5.4;3.3;;;;;;;3.71;60.35547;930.8157;;;;
2021/01/04 10:38:21;;;;;;;11.2;3.1;;;;;;;3.68;60.05957;930.7144;;;;
2021/01/04 10:40:51;;;;;;;5.8;3.3;;;;;;;3.75;59.8916;930.7467;;;;
2021/01/04 10:43:17;;;;;;;5.4;3.2;;;;;;;3.36;60.49609;930.7629;;;;
2021/01/04 10:45:41;;;;;;;5.2;3.2;;;;;;;3.3;61.24121;930.7584;;;;
2021/01/04 10:48:08;;;;;;;5.8;3.6;;;;;;;2.76;62.99023;930.7698;;;;
2021/01/04 10:50:33;;;;;;;9.2;4;;;;;;;2.64;64.02637;930.693;;;;
2021/01/04 10:52:58;;;;;;;7.9;3.6;;;;;;;2.52;64.01855;930.6705;;;;
2021/01/04 10:55:25;;;;;;;8.6;3.4;;;;;;;2.35;64.77832;930.6342;;;;
2021/01/04 10:57:51;;;;;;;7.8;3.6;;;;;;;2.49;64.44043;930.5848;;;;
2021/01/04 11:00:21;;;;;;;5.5;3.5;;;;;;;2.46;63.77539;930.5952;;;;
2021/01/04 11:02:46;;;;;;;9.2;3.3;;;;;;;2.46;63.9209;930.4487;;;;
2021/01/04 11:05:15;;;;;;;9.4;3.5;;;;;;;2.31;64.45801;930.4344;;;;
2021/01/04 11:07:40;;;;;;;8;3.7;;;;;;;2.36;64.5332;930.4727;;;;
2021/01/04 11:10:09;;;;;;;7.4;3.5;;;;;;;2.4;63.88867;930.4117;;;;
2021/01/04 11:12:35;;;;;;;5.6;3;;;;;;;2.5;63.81445;930.3722;;;;
2021/01/04 11:15:02;;;;;;;7;3.8;;;;;;;2.48;63.97949;930.3096;;;;
2021/01/04 11:17:27;;;;;;;4.8;3;;;;;;;2.52;64.13184;930.2817;;;;
2021/01/04 11:19:55;;;;;;;6.6;3.1;;;;;;;2.63;64.47363;930.2424;;;;
2021/01/04 11:22:24;;;;;;;4;2.9;;;;;;;2.53;65.01855;930.1902;;;;
2021/01/04 11:24:49;;;;;;;8;3.6;;;;;;;2.6;63.76172;930.1437;;;;
2021/01/04 11:27:14;;;;;;;5.3;3;;;;;;;2.73;63.80469;930.1593;;;;
2021/01/04 11:29:39;;;;;;;6.9;3.1;;;;;;;3.02;63.09668;930.1372;;;;
2021/01/04 11:32:05;;;;;;;7.1;3.3;;;;;;;3.19;62.80957;930.1287;;;;
2021/01/04 11:34:30;;;;;;;5.3;3;;;;;;;3.24;62.33203;930.1094;;;;
2021/01/04 11:36:59;;;;;;;5.9;3;;;;;;;3.18;62.24414;930.1479;;;;
2021/01/04 11:39:24;;;;;;;9.4;4.3;;;;;;;3.17;62.82617;930.0596;;;;
2021/01/04 11:41:51;;;;;;;6;3.7;;;;;;;3.21;62.31641;930.1255;;;;
2021/01/04 11:44:16;;;;;;;6.7;3.9;;;;;;;3.3;62.16113;930.1542;;;;
2021/01/04 11:46:43;;;;;;;7.9;3.7;;;;;;;3.27;61.94434;930.0969;;;;
2021/01/04 11:49:08;;;;;;;3.8;2.8;;;;;;;3.4;61.43457;930.0416;;;;
2021/01/04 11:51:34;;;;;;;7.4;3.8;;;;;;;3.26;61.84082;930.0667;;;;
2021/01/04 11:53:59;;;;;;;7.1;3.9;;;;;;;3.15;62.12793;929.9727;;;;
2021/01/04 11:56:26;;;;;;;6.1;3.5;;;;;;;3;62.41992;930.0985;;;;
2021/01/04 11:58:52;;;;;;;5.3;3.7;;;;;;;2.94;62.84863;930.0666;;;;
2021/01/04 12:01:19;;;;;;;8.2;3.7;;;;;;;2.9;63.13379;930.0034;;;;
2021/01/04 12:03:44;;;;;;;8.5;4.3;;;;;;;2.87;63.5459;929.9478;;;;
2021/01/04 12:06:12;;;;;;;8.7;3.7;;;;;;;2.94;63.36523;929.9612;;;;
2021/01/04 12:08:37;;;;;;;7.8;3.2;;;;;;;2.85;63.29688;929.9268;;;;
2021/01/04 12:11:05;;;;;;;5.9;3.5;;;;;;;2.86;63.48926;929.8586;;;;
2021/01/04 12:13:30;;;;;;;6.2;3.9;;;;;;;2.81;63.35742;929.7938;;;;
2021/01/04 12:15:57;;;;;;;5.1;3.2;;;;;;;2.71;64.00293;929.7421;;;;
2021/01/04 12:18:23;;;;;;;9.6;4;;;;;;;2.67;64.13281;929.7657;;;;
2021/01/04 12:20:50;;;;;;;6.3;3.2;;;;;;;2.75;63.41699;929.7503;;;;
2021/01/04 12:23:15;;;;;;;5.8;3.3;;;;;;;2.83;63.31543;929.7053;;;;
2021/01/04 12:25:46;;;;;;;7.5;3.5;;;;;;;2.83;63.45996;929.6423;;;;
2021/01/04 12:28:11;;;;;;;5.2;3.3;;;;;;;2.75;63.47266;929.6561;;;;
2021/01/04 12:30:40;;;;;;;9.8;3.7;;;;;;;2.58;64.26563;929.6075;;;;
2021/01/04 12:33:08;;;;;;;5.8;2.9;;;;;;;2.37;64.43262;929.5695;;;;
2021/01/04 12:35:34;;;;;;;9.9;3.4;;;;;;;2.52;64.91699;929.5408;;;;
2021/01/04 12:38:05;;;;;;;9.4;3.5;;;;;;;2.61;64.37988;929.6029;;;;
2021/01/04 12:40:37;;;;;;;5.5;3.2;;;;;;;2.56;64.67578;929.4492;;;;
2021/01/04 12:43:05;;;;;;;9.3;3.8;;;;;;;2.55;64.46094;929.5706;;;;
2021/01/04 12:45:30;;;;;;;6.2;2.9;;;;;;;2.34;65.94238;929.5541;;;;
2021/01/04 12:47:57;;;;;;;8.1;4;;;;;;;2.45;65.23047;929.4172;;;;
2021/01/04 12:50:23;;;;;;;4.9;3.5;;;;;;;2.52;64.96191;929.4788;;;;
2021/01/04 12:52:50;;;;;;;7.4;4.1;;;;;;;2.33;65.37891;929.4428;;;;
2021/01/04 12:55:17;;;;;;;8.1;3.7;;;;;;;2.32;65.96191;929.358;;;;
2021/01/04 12:57:40;;;;;;;7.2;3.7;;;;;;;2.44;65.85645;929.4423;;;;
2021/01/04 13:00:09;;;;;;;6.2;3.2;;;;;;;2.41;65.8623;929.4106;;;;
2021/01/04 13:02:35;;;;;;;7.4;3.9;;;;;;;2.41;65.88477;929.4272;;;;
2021/01/04 13:04:59;;;;;;;6.1;3;;;;;;;2.39;66.0957;929.4847;;;;
2021/01/04 13:07:24;;;;;;;9.3;3.1;;;;;;;2.37;66.49512;929.5123;;;;
2021/01/04 13:09:52;;;;;;;8.9;4.3;;;;;;;2.34;66.66992;929.5132;;;;
2021/01/04 13:12:17;;;;;;;8.6;4.3;;;;;;;2.17;67.10254;929.5154;;;;
2021/01/04 13:14:46;;;;;;;9.7;4.3;;;;;;;2.27;67.10645;929.5325;;;;
2021/01/04 13:17:10;;;;;;;7.4;3.5;;;;;;;2.37;67.08789;929.5005;;;;
2021/01/04 13:19:36;;;;;;;5.3;2.8;;;;;;;2.26;67.36133;929.486;;;;
2021/01/04 13:22:01;;;;;;;7;3.7;;;;;;;2.35;67.06348;929.4585;;;;
2021/01/04 13:24:27;;;;;;;6.3;4;;;;;;;2.6;66.31738;929.45;;;;
2021/01/04 13:26:52;;;;;;;8.9;4;;;;;;;2.07;67.99316;929.4949;;;;
2021/01/04 13:29:18;;;;;;;8.4;3.9;;;;;;;2.17;68.00879;929.4637;;;;
2021/01/04 13:31:43;;;;;;;8.2;4.6;;;;;;;2.34;67.60938;929.4723;;;;
2021/01/04 13:34:08;;;;;;;11;4.7;;;;;;;2.49;67.00684;929.4606;;;;
2021/01/04 13:36:34;;;;;;;6.3;3.9;;;;;;;3.19;64.79492;929.3782;;;;
2021/01/04 13:38:59;;;;;;;7.8;4;;;;;;;4.23;61.94824;929.461;;;;
2021/01/04 13:41:28;;;;;;;7.9;3.4;;;;;;;5.22;57.75098;929.4135;;;;
2021/01/04 13:43:53;;;;;;;8.4;4.4;;;;;;;6.1;54.78418;929.4125;;;;
2021/01/04 13:46:19;;;;;;;7.6;4.1;;;;;;;5.71;54.71191;929.4154;;;;
2021/01/04 13:48:44;;;;;;;5.4;3.8;;;;;;;4.82;57.54004;929.402;;;;
2021/01/04 13:51:10;;;;;;;6;3.6;;;;;;;4.48;58.97852;929.4981;;;;
2021/01/04 13:53:35;;;;;;;8.1;4.5;;;;;;;4.25;59.74707;929.4543;;;;
2021/01/04 13:56:00;;;;;;;7.9;4.3;;;;;;;3.65;61.79688;929.4833;;;;
2021/01/04 13:58:27;;;;;;;9.9;4.3;;;;;;;3.57;62.23438;929.5003;;;;
2021/01/04 14:00:51;;;;;;;7.3;3.9;;;;;;;3.03;63.53516;929.4785;;;;
2021/01/04 14:03:18;;;;;;;8.2;3.7;;;;;;;2.92;64.21484;929.5117;;;;
2021/01/04 14:05:43;;;;;;;7.1;3.2;;;;;;;2.78;64.6748;929.538;;;;
2021/01/04 14:08:11;;;;;;;9.9;4.5;;;;;;;2.34;66.11035;929.4495;;;;
2021/01/04 14:10:37;;;;;;;5.5;3.3;;;;;;;2.54;66.11816;929.5508;;;;
2021/01/04 14:13:02;;;;;;;8.6;4.1;;;;;;;2.26;66.34375;929.5701;;;;
2021/01/04 14:15:28;;;;;;;5;2.7;;;;;;;2.12;66.96094;929.5544;;;;
2021/01/04 14:17:53;;;;;;;5.5;3.4;;;;;;;1.94;67.69336;929.6214;;;;
2021/01/04 14:20:18;;;;;;;4.5;3.2;;;;;;;1.53;69.23633;929.6783;;;;
2021/01/04 14:22:43;;;;;;;3.2;2.6;;;;;;;1.5;69.70215;929.6635;;;;
2021/01/04 14:25:09;;;;;;;10.8;4;;;;;;;1.45;69.79395;929.6336;;;;
2021/01/04 14:27:35;;;;;;;9.3;4.2;;;;;;;1.11;71.22266;929.6889;;;;
2021/01/04 14:30:00;;;;;;;8.9;3.4;;;;;;;1.3;70.88574;929.6555;;;;
2021/01/04 14:32:27;;;;;;;10.4;3.7;;;;;;;1.08;71.6084;929.663;;;;
2021/01/04 14:34:52;;;;;;;3.9;2.7;;;;;;;1.31;70.86621;929.6255;;;;
2021/01/04 14:37:19;;;;;;;5.7;3.2;;;;;;;1.21;71.08301;929.6194;;;;
2021/01/04 14:39:42;;;;;;;4.4;3.1;;;;;;;1.28;71.03906;929.6197;;;;
2021/01/04 14:42:07;;;;;;;5.8;3.2;;;;;;;1.2;71.18359;929.6418;;;;
2021/01/04 14:44:32;;;;;;;5.5;3.2;;;;;;;1.26;71.125;929.6678;;;;
2021/01/04 14:46:57;;;;;;;5;3.2;;;;;;;1.33;70.95703;929.6188;;;;
2021/01/04 14:49:24;;;;;;;6.3;3.1;;;;;;;1.35;70.90625;929.6476;;;;
2021/01/04 14:51:50;;;;;;;8.4;3.6;;;;;;;1.34;71.38477;929.6223;;;;
2021/01/04 14:54:17;;;;;;;4.5;2.9;;;;;;;1.47;70.88086;929.5825;;;;
2021/01/04 14:56:42;;;;;;;4.8;2.9;;;;;;;1.44;71.09961;929.6058;;;;
2021/01/04 14:59:08;;;;;;;9.1;3.4;;;;;;;1.32;71.54785;929.5887;;;;
2021/01/04 15:01:32;;;;;;;5.6;3.2;;;;;;;1.13;71.77441;929.611;;;;
2021/01/04 15:03:58;;;;;;;8.2;4.1;;;;;;;1.14;71.85254;929.6387;;;;
2021/01/04 15:06:23;;;;;;;4.6;2.8;;;;;;;1.23;71.99219;929.572;;;;
2021/01/04 15:08:48;;;;;;;5.2;2.9;;;;;;;1.39;71.72754;929.5634;;;;
2021/01/04 15:11:13;;;;;;;8.2;3.4;;;;;;;1.37;71.53516;929.5542;;;;
2021/01/04 15:13:38;;;;;;;7.4;3.8;;;;;;;1.38;71.55859;929.5851;;;;
2021/01/04 15:16:03;;;;;;;4;3.1;;;;;;;1.22;72.34668;929.6477;;;;
2021/01/04 15:18:28;;;;;;;5.8;3.3;;;;;;;1.24;72.01465;929.5887;;;;
2021/01/04 15:20:54;;;;;;;3.5;2.5;;;;;;;1.31;71.81641;929.5751;;;;
2021/01/04 15:23:19;;;;;;;6.9;3.6;;;;;;;1.24;72.3623;929.592;;;;
2021/01/04 15:25:44;;;;;;;4.7;3.2;;;;;;;1.43;71.90137;929.6699;;;;
2021/01/04 15:28:09;;;;;;;5.1;2.8;;;;;;;1.53;71.48438;929.6163;;;;
2021/01/04 15:30:35;;;;;;;4.4;3;;;;;;;1.66;70.83594;929.6911;;;;
2021/01/04 15:33:00;;;;;;;9.9;4.1;;;;;;;1.6;70.96875;929.7274;;;;
2021/01/04 15:35:26;;;;;;;7.1;3.7;;;;;;;1.52;70.94434;929.733;;;;
2021/01/04 15:37:51;;;;;;;4.9;3.5;;;;;;;1.31;71.38965;929.7844;;;;
2021/01/04 15:40:17;;;;;;;6.6;3.7;;;;;;;1.36;71.56641;929.7438;;;;
2021/01/04 15:42:42;;;;;;;6.6;3.2;;;;;;;1.28;71.90137;929.7932;;;;
2021/01/04 15:45:08;;;;;;;7.3;3.3;;;;;;;1.11;72.85352;929.8003;;;;